createdAt,value
2017-06-16T00:00:51.737Z,2.67
2017-06-16T00:03:20.462Z,2.57
2017-06-16T00:05:47.558Z,3.00
2017-06-16T00:08:14.264Z,2.50
2017-06-16T00:10:40.554Z,2.40
2017-06-16T00:13:06.813Z,2.40
2017-06-16T00:15:34.182Z,2.40
2017-06-16T00:18:00.522Z,2.53
2017-06-16T00:20:28.322Z,2.50
2017-06-16T00:22:54.615Z,2.80
2017-06-16T00:25:21.446Z,2.70
2017-06-16T00:27:50.197Z,2.87
2017-06-16T00:30:18.481Z,2.80
2017-06-16T00:32:46.552Z,2.50
2017-06-16T00:35:13.573Z,3.17
2017-06-16T00:37:39.873Z,3.50
2017-06-16T00:40:06.170Z,2.80
2017-06-16T00:42:32.444Z,3.13
2017-06-16T00:44:59.507Z,2.40
2017-06-16T00:47:25.833Z,2.77
2017-06-16T00:49:52.107Z,2.90
2017-06-16T00:52:20.093Z,2.63
2017-06-16T00:54:46.371Z,3.07
2017-06-16T00:57:13.681Z,2.90
2017-06-16T00:59:39.958Z,2.70
2017-06-16T01:02:06.217Z,2.73
2017-06-16T01:04:34.289Z,3.10
2017-06-16T01:07:02.421Z,3.43
2017-06-16T01:09:30.856Z,3.40
2017-06-16T01:11:58.257Z,3.53
2017-06-16T01:14:24.513Z,2.80
2017-06-16T01:16:51.534Z,3.20
2017-06-16T01:19:17.858Z,3.20
2017-06-16T01:21:44.506Z,3.07
2017-06-16T01:24:11.542Z,3.00
2017-06-16T01:26:39.718Z,2.97
2017-06-16T01:29:06.733Z,2.70
2017-06-16T01:31:33.084Z,3.60
2017-06-16T01:34:01.081Z,4.00
2017-06-16T01:36:29.125Z,3.57
2017-06-16T01:38:57.155Z,3.33
2017-06-16T01:41:23.845Z,3.80
2017-06-16T01:43:50.153Z,3.63
2017-06-16T01:46:16.810Z,3.70
2017-06-16T01:48:43.489Z,2.73
2017-06-16T01:51:10.186Z,3.43
2017-06-16T01:53:36.862Z,3.90
2017-06-16T01:56:03.149Z,4.00
2017-06-16T01:58:30.144Z,3.10
2017-06-16T02:00:56.457Z,2.80
2017-06-16T02:03:22.702Z,4.53
2017-06-16T02:05:48.958Z,4.50
2017-06-16T02:08:16.105Z,3.93
2017-06-16T02:10:44.117Z,4.20
2017-06-16T02:13:12.130Z,4.43
2017-06-16T02:15:39.533Z,5.20
2017-06-16T02:18:06.525Z,4.73
2017-06-16T02:20:32.785Z,4.50
2017-06-16T02:23:01.589Z,4.17
2017-06-16T02:25:27.903Z,3.90
2017-06-16T02:27:54.281Z,4.20
2017-06-16T02:30:21.333Z,4.30
2017-06-16T02:32:47.646Z,3.90
2017-06-16T02:35:13.959Z,4.27
2017-06-16T02:37:40.255Z,4.93
2017-06-16T02:40:06.910Z,4.27
2017-06-16T02:42:33.650Z,4.83
2017-06-16T02:45:01.664Z,4.20
2017-06-16T02:47:29.672Z,5.10
2017-06-16T02:49:55.971Z,5.77
2017-06-16T02:52:22.997Z,5.30
2017-06-16T02:54:49.776Z,5.03
2017-06-16T02:57:16.482Z,5.30
2017-06-16T02:59:43.150Z,4.63
2017-06-16T03:02:09.513Z,4.47
2017-06-16T03:04:35.907Z,4.47
2017-06-16T03:07:02.574Z,4.40
2017-06-16T03:09:28.886Z,4.93
2017-06-16T03:11:56.895Z,4.20
2017-06-16T03:14:23.559Z,4.30
2017-06-16T03:16:50.658Z,4.60
2017-06-16T03:19:18.657Z,4.67
2017-06-16T03:21:50.708Z,4.50
2017-06-16T03:24:23.485Z,4.40
2017-06-16T03:26:51.290Z,4.60
2017-06-16T03:29:17.579Z,5.10
2017-06-16T03:31:44.250Z,4.80
2017-06-16T03:34:10.917Z,5.93
2017-06-16T03:36:37.581Z,4.30
2017-06-16T03:39:04.605Z,5.57
2017-06-16T03:41:37.809Z,4.80
2017-06-16T03:44:06.004Z,6.40
2017-06-16T03:46:35.412Z,4.83
2017-06-16T03:49:04.748Z,6.33
2017-06-16T03:51:32.989Z,6.80
2017-06-16T03:53:59.414Z,5.40
2017-06-16T03:56:27.002Z,5.10
2017-06-16T03:58:53.542Z,5.10
2017-06-16T04:01:20.013Z,5.63
2017-06-16T04:03:46.494Z,4.60
2017-06-16T04:06:13.394Z,5.57
2017-06-16T04:08:39.918Z,5.40
2017-06-16T04:11:07.157Z,5.23
2017-06-16T04:13:35.368Z,5.70
2017-06-16T04:16:03.550Z,6.03
2017-06-16T04:18:31.550Z,6.00
2017-06-16T04:20:58.456Z,7.60
2017-06-16T04:23:25.321Z,6.70
2017-06-16T04:25:51.743Z,6.10
2017-06-16T04:28:18.968Z,5.93
2017-06-16T04:30:45.458Z,5.27
2017-06-16T04:33:13.651Z,6.33
2017-06-16T04:35:40.161Z,6.37
2017-06-16T04:38:06.722Z,6.37
2017-06-16T04:40:33.982Z,6.17
2017-06-16T04:43:00.515Z,5.97
2017-06-16T04:45:27.021Z,5.20
2017-06-16T04:47:55.225Z,6.00
2017-06-16T04:50:23.453Z,6.13
2017-06-16T04:52:50.578Z,5.90
2017-06-16T04:55:17.530Z,5.93
2017-06-16T04:57:44.036Z,6.20
2017-06-16T05:00:10.656Z,4.43
2017-06-16T05:02:38.246Z,5.13
2017-06-16T05:05:04.770Z,5.70
2017-06-16T05:07:32.062Z,5.53
2017-06-16T05:09:58.920Z,5.77
2017-06-16T05:12:26.136Z,5.97
2017-06-16T05:14:53.770Z,5.63
2017-06-16T05:17:20.254Z,5.50
2017-06-16T05:19:48.481Z,5.27
2017-06-16T05:22:16.794Z,7.17
2017-06-16T05:24:43.325Z,6.80
2017-06-16T05:27:09.783Z,7.70
2017-06-16T05:29:36.298Z,6.33
2017-06-16T05:32:03.514Z,5.70
2017-06-16T05:34:30.843Z,5.83
2017-06-16T05:36:58.127Z,6.60
2017-06-16T05:39:25.625Z,5.77
2017-06-16T05:41:52.138Z,6.60
2017-06-16T05:44:18.620Z,6.87
2017-06-16T05:46:45.175Z,6.83
2017-06-16T05:49:13.194Z,7.63
2017-06-16T05:51:41.429Z,5.80
2017-06-16T05:54:09.710Z,6.60
2017-06-16T05:56:36.957Z,7.33
2017-06-16T05:59:04.975Z,6.37
2017-06-16T06:01:31.592Z,8.30
2017-06-16T06:03:58.109Z,7.33
2017-06-16T06:06:24.621Z,6.13
2017-06-16T06:08:51.203Z,6.80
2017-06-16T06:11:18.330Z,6.10
2017-06-16T06:13:45.701Z,6.13
2017-06-16T06:16:12.628Z,6.67
2017-06-16T06:18:39.149Z,6.40
2017-06-16T06:21:05.667Z,7.57
2017-06-16T06:23:33.904Z,6.33
2017-06-16T06:26:02.128Z,7.40
2017-06-16T06:28:30.348Z,6.40
2017-06-16T06:30:56.865Z,7.60
2017-06-16T06:33:23.453Z,6.50
2017-06-16T06:35:50.661Z,5.77
2017-06-16T06:38:17.927Z,6.83
2017-06-16T06:40:44.847Z,6.07
2017-06-16T06:43:11.309Z,5.87
2017-06-16T06:45:39.509Z,6.20
2017-06-16T06:48:07.173Z,5.30
2017-06-16T06:50:34.732Z,5.57
2017-06-16T06:53:01.609Z,5.17
2017-06-16T06:55:28.555Z,4.33
2017-06-16T06:57:56.796Z,5.03
2017-06-16T07:00:26.033Z,5.87
2017-06-16T07:02:53.082Z,5.90
2017-06-16T07:05:20.025Z,6.13
2017-06-16T07:07:48.458Z,5.20
2017-06-16T07:10:15.755Z,6.13
2017-06-16T07:12:43.318Z,4.43
2017-06-16T07:15:09.903Z,4.27
2017-06-16T07:17:36.803Z,4.73
2017-06-16T07:20:04.166Z,4.60
2017-06-16T07:22:30.783Z,4.97
2017-06-16T07:24:58.466Z,4.53
2017-06-16T07:27:26.952Z,4.40
2017-06-16T07:29:55.277Z,5.30
2017-06-16T07:32:22.725Z,5.37
2017-06-16T07:34:50.929Z,5.13
2017-06-16T07:37:18.157Z,4.43
2017-06-16T07:39:45.254Z,5.50
2017-06-16T07:42:11.934Z,5.70
2017-06-16T07:44:38.874Z,4.40
2017-06-16T07:47:06.922Z,3.40
2017-06-16T07:49:33.448Z,3.90
2017-06-16T07:52:00.058Z,3.80
2017-06-16T07:54:29.344Z,3.20
2017-06-16T07:56:57.619Z,3.37
2017-06-16T07:59:25.873Z,4.07
2017-06-16T08:01:52.806Z,4.40
2017-06-16T08:04:19.286Z,5.33
2017-06-16T08:06:51.797Z,4.00
2017-06-16T08:09:18.669Z,3.37
2017-06-16T08:11:45.155Z,3.67
2017-06-16T08:14:11.725Z,3.60
2017-06-16T08:16:38.963Z,3.80
2017-06-16T08:19:05.504Z,3.77
2017-06-16T08:21:33.946Z,3.70
2017-06-16T08:24:00.929Z,3.47
2017-06-16T08:26:27.426Z,3.47
2017-06-16T08:28:56.123Z,4.17
2017-06-16T08:31:24.346Z,3.67
2017-06-16T08:33:50.845Z,4.23
2017-06-16T08:36:18.152Z,4.40
2017-06-16T08:38:45.739Z,3.57
2017-06-16T08:41:12.625Z,2.50
2017-06-16T08:43:39.933Z,3.07
2017-06-16T08:46:06.418Z,3.77
2017-06-16T08:48:32.957Z,3.57
2017-06-16T08:50:59.473Z,2.83
2017-06-16T08:53:25.957Z,2.97
2017-06-16T08:55:52.459Z,3.30
2017-06-16T08:58:19.033Z,2.43
2017-06-16T09:00:47.262Z,2.77
2017-06-16T09:03:15.453Z,2.57
2017-06-16T09:05:42.049Z,2.67
2017-06-16T09:08:09.334Z,2.53
2017-06-16T09:10:35.832Z,4.13
2017-06-16T09:13:03.786Z,2.70
2017-06-16T09:15:30.961Z,3.07
2017-06-16T09:17:57.914Z,2.83
2017-06-16T09:20:28.632Z,2.20
2017-06-16T09:22:55.142Z,2.50
2017-06-16T09:25:22.353Z,2.90
2017-06-16T09:27:48.858Z,2.20
2017-06-16T09:30:16.537Z,2.73
2017-06-16T09:35:17.810Z,4.17
2017-06-16T09:37:44.669Z,7.60
2017-06-16T09:40:11.897Z,3.00
2017-06-16T09:42:38.406Z,3.20
2017-06-16T09:45:04.956Z,2.50
2017-06-16T09:47:31.502Z,2.37
2017-06-16T09:49:58.368Z,2.30
2017-06-16T09:52:26.853Z,2.60
2017-06-16T09:54:54.077Z,2.60
2017-06-16T09:57:21.374Z,2.30
2017-06-16T09:59:47.885Z,2.60
2017-06-16T10:02:16.125Z,2.63
2017-06-16T10:04:44.516Z,2.97
2017-06-16T10:07:14.724Z,3.40
2017-06-16T10:09:41.706Z,3.20
2017-06-16T10:12:09.307Z,2.57
2017-06-16T10:14:36.213Z,3.00
2017-06-16T10:17:03.462Z,4.00
2017-06-16T10:19:31.047Z,3.70
2017-06-16T10:22:02.308Z,3.20
2017-06-16T10:24:28.908Z,2.93
2017-06-16T10:26:55.349Z,3.03
2017-06-16T10:29:22.245Z,2.50
2017-06-16T10:31:50.528Z,2.57
2017-06-16T10:34:18.733Z,2.70
2017-06-16T10:36:50.345Z,3.10
2017-06-16T10:39:17.150Z,2.80
2017-06-16T10:41:44.385Z,1.90
2017-06-16T10:44:12.389Z,2.63
2017-06-16T10:46:39.429Z,2.27
2017-06-16T10:49:05.980Z,1.57
2017-06-16T10:51:38.305Z,2.80
2017-06-16T10:54:05.941Z,2.20
2017-06-16T10:56:32.427Z,2.77
2017-06-16T10:59:00.657Z,2.07
2017-06-16T11:01:28.739Z,2.60
2017-06-16T11:03:56.043Z,2.63
2017-06-16T11:06:22.894Z,3.20
2017-06-16T11:08:52.723Z,2.87
2017-06-16T11:11:20.002Z,2.90
2017-06-16T11:13:46.543Z,2.53
2017-06-16T11:16:13.066Z,2.13
2017-06-16T11:18:39.608Z,3.00
2017-06-16T11:21:06.125Z,3.63
2017-06-16T11:23:34.453Z,2.00
2017-06-16T11:26:01.790Z,2.93
2017-06-16T11:28:30.014Z,2.43
2017-06-16T11:30:58.285Z,2.40
2017-06-16T11:33:26.529Z,2.63
2017-06-16T11:35:53.488Z,3.63
2017-06-16T11:38:20.001Z,2.53
2017-06-16T11:40:48.261Z,2.57
2017-06-16T11:43:15.126Z,2.10
2017-06-16T11:45:42.467Z,2.40
2017-06-16T11:48:09.789Z,2.43
2017-06-16T11:50:36.325Z,2.90
2017-06-16T11:53:03.605Z,2.70
2017-06-16T11:55:30.203Z,2.40
2017-06-16T11:57:57.106Z,2.17
2017-06-16T12:00:25.425Z,2.17
2017-06-16T12:02:53.642Z,2.10
2017-06-16T12:05:21.871Z,2.70
2017-06-16T12:07:49.485Z,2.83
2017-06-16T12:10:16.931Z,2.73
2017-06-16T12:12:45.194Z,2.47
2017-06-16T12:15:11.714Z,2.07
2017-06-16T12:17:39.013Z,2.50
2017-06-16T12:20:05.533Z,2.13
2017-06-16T12:22:32.834Z,2.63
2017-06-16T12:25:00.117Z,1.53
2017-06-16T12:27:26.689Z,1.90
2017-06-16T12:29:55.344Z,2.40
2017-06-16T12:32:23.512Z,1.93
2017-06-16T12:34:51.737Z,2.03
2017-06-16T12:37:18.314Z,2.27
2017-06-16T12:39:44.806Z,2.10
2017-06-16T12:42:12.178Z,2.00
2017-06-16T12:44:40.430Z,1.53
2017-06-16T12:47:07.313Z,1.60
2017-06-16T12:49:33.938Z,2.20
2017-06-16T12:52:00.934Z,1.63
2017-06-16T12:54:27.457Z,1.80
2017-06-16T12:56:54.029Z,1.73
2017-06-16T12:59:22.281Z,1.93
2017-06-16T13:01:48.777Z,1.80
2017-06-16T13:04:17.161Z,1.40
2017-06-16T13:06:45.437Z,2.07
2017-06-16T13:09:12.310Z,2.60
2017-06-16T13:11:38.826Z,2.20
2017-06-16T13:14:05.322Z,2.10
2017-06-16T13:16:32.205Z,1.53
2017-06-16T13:18:58.781Z,1.63
2017-06-16T13:21:26.206Z,2.03
2017-06-16T13:23:52.679Z,2.40
2017-06-16T13:26:19.191Z,1.50
2017-06-16T13:28:45.752Z,1.17
2017-06-16T13:31:12.510Z,1.37
2017-06-16T13:33:39.777Z,1.33
2017-06-16T13:36:08.042Z,1.53
2017-06-16T13:38:36.293Z,2.73
2017-06-16T13:41:03.262Z,2.10
2017-06-16T13:43:29.795Z,3.93
2017-06-16T13:45:56.322Z,2.30
2017-06-16T13:48:23.210Z,2.27
2017-06-16T13:50:50.443Z,1.47
2017-06-16T13:53:18.409Z,1.20
2017-06-16T13:55:45.384Z,1.50
2017-06-16T13:58:12.421Z,1.90
2017-06-16T14:00:39.328Z,1.50
2017-06-16T14:03:06.189Z,2.33
2017-06-16T14:05:33.464Z,2.10
2017-06-16T14:07:59.993Z,1.90
2017-06-16T14:10:28.333Z,1.90
2017-06-16T14:12:56.860Z,2.07
2017-06-16T14:15:23.215Z,2.17
2017-06-16T14:17:51.258Z,2.40
2017-06-16T14:20:18.472Z,1.63
2017-06-16T14:22:46.081Z,1.30
2017-06-16T14:25:12.793Z,1.80
2017-06-16T14:27:39.466Z,1.70
2017-06-16T14:30:06.863Z,1.80
2017-06-16T14:32:33.477Z,1.60
2017-06-16T14:34:59.731Z,1.17
2017-06-16T14:37:26.017Z,1.50
2017-06-16T14:39:52.298Z,1.63
2017-06-16T14:42:20.404Z,1.30
2017-06-16T14:44:48.397Z,1.33
2017-06-16T14:47:15.108Z,2.00
2017-06-16T14:49:42.372Z,2.43
2017-06-16T14:52:09.411Z,1.93
2017-06-16T14:54:36.470Z,2.17
2017-06-16T14:57:03.034Z,1.70
2017-06-16T14:59:30.254Z,1.93
2017-06-16T15:01:57.359Z,1.53
2017-06-16T15:04:25.347Z,1.97
2017-06-16T15:06:52.698Z,1.50
2017-06-16T15:09:19.757Z,1.97
2017-06-16T15:11:46.042Z,2.13
2017-06-16T15:14:14.259Z,1.63
2017-06-16T15:16:42.340Z,1.60
2017-06-16T15:19:09.721Z,2.07
2017-06-16T15:21:36.671Z,2.30
2017-06-16T15:24:02.938Z,1.90
2017-06-16T15:26:31.235Z,1.63
2017-06-16T15:28:58.257Z,1.60
2017-06-16T15:31:26.033Z,2.40
2017-06-16T15:33:52.274Z,1.40
2017-06-16T15:36:18.557Z,2.03
2017-06-16T15:38:45.209Z,2.10
2017-06-16T15:41:12.219Z,2.07
2017-06-16T15:43:40.189Z,1.83
2017-06-16T15:46:08.177Z,1.97
2017-06-16T15:48:36.185Z,2.07
2017-06-16T15:51:02.819Z,2.40
2017-06-16T15:53:29.473Z,2.23
2017-06-16T15:55:56.506Z,2.13
2017-06-16T15:58:23.522Z,1.60
2017-06-16T16:00:49.777Z,2.50
2017-06-16T16:03:17.755Z,1.93
2017-06-16T16:05:44.057Z,2.10
2017-06-16T16:08:10.710Z,1.80
2017-06-16T16:10:37.346Z,2.10
2017-06-16T16:13:05.332Z,1.80
2017-06-16T16:15:31.601Z,2.90
2017-06-16T16:18:02.657Z,2.10
2017-06-16T16:20:30.853Z,2.27
2017-06-16T16:22:57.851Z,2.50
2017-06-16T16:25:25.836Z,2.60
2017-06-16T16:27:53.610Z,2.40
2017-06-16T16:30:24.588Z,2.13
2017-06-16T16:32:51.238Z,1.83
2017-06-16T16:35:19.250Z,1.97
2017-06-16T16:37:47.924Z,2.00
2017-06-16T16:40:15.956Z,2.43
2017-06-16T16:42:42.603Z,2.30
2017-06-16T16:45:09.277Z,2.43
2017-06-16T16:47:37.287Z,2.37
2017-06-16T16:50:07.677Z,2.57
2017-06-16T16:52:34.321Z,2.57
2017-06-16T16:55:01.359Z,2.93
2017-06-16T16:57:28.859Z,3.07
2017-06-16T16:59:55.905Z,1.87
2017-06-16T17:02:24.120Z,2.43
2017-06-16T17:04:50.394Z,2.60
2017-06-16T17:07:17.782Z,1.77
2017-06-16T17:09:44.476Z,2.13
2017-06-16T17:12:12.478Z,1.80
2017-06-16T17:14:38.778Z,2.07
2017-06-16T17:17:05.074Z,2.20
2017-06-16T17:19:33.113Z,1.90
2017-06-16T17:22:01.129Z,2.00
2017-06-16T17:24:29.174Z,2.37
2017-06-16T17:26:56.283Z,2.17
2017-06-16T17:29:23.657Z,2.00
2017-06-16T17:31:54.722Z,2.00
2017-06-16T17:34:22.912Z,1.90
2017-06-16T17:36:49.256Z,2.87
2017-06-16T17:39:19.177Z,2.20
2017-06-16T17:41:45.486Z,2.90
2017-06-16T17:44:16.457Z,2.23
2017-06-16T17:46:44.802Z,3.33
2017-06-16T17:49:12.814Z,2.57
2017-06-16T17:51:39.101Z,2.47
2017-06-16T17:54:07.105Z,4.97
2017-06-16T17:56:39.730Z,3.87
2017-06-16T17:59:07.485Z,5.77
2017-06-16T18:01:33.741Z,3.47
2017-06-16T18:04:00.018Z,2.60
2017-06-16T18:06:26.712Z,2.50
2017-06-16T18:08:53.330Z,2.07
2017-06-16T18:11:21.694Z,2.80
2017-06-16T18:13:47.993Z,3.50
2017-06-16T18:16:16.080Z,4.70
2017-06-16T18:18:44.141Z,2.63
2017-06-16T18:21:10.724Z,3.00
2017-06-16T18:23:38.187Z,2.80
2017-06-16T18:26:06.197Z,2.93
2017-06-16T18:28:34.204Z,2.70
2017-06-16T18:31:04.688Z,2.70
2017-06-16T18:33:33.421Z,3.20
2017-06-16T18:36:00.512Z,2.33
2017-06-16T18:38:26.758Z,2.70
2017-06-16T18:40:53.130Z,2.30
2017-06-16T18:43:21.170Z,1.90
2017-06-16T18:45:49.178Z,2.20
2017-06-16T18:48:17.204Z,2.60
2017-06-16T18:50:45.290Z,2.97
2017-06-16T18:53:11.961Z,2.43
2017-06-16T18:55:39.993Z,3.17
2017-06-16T18:58:06.292Z,2.87
2017-06-16T19:00:34.713Z,2.40
2017-06-16T19:03:00.982Z,2.27
2017-06-16T19:05:27.659Z,2.50
2017-06-16T19:07:53.975Z,2.90
2017-06-16T19:10:20.657Z,2.43
2017-06-16T19:12:48.026Z,2.53
2017-06-16T19:15:14.657Z,2.10
2017-06-16T19:17:42.730Z,2.43
2017-06-16T19:20:10.762Z,2.80
2017-06-16T19:22:38.743Z,2.93
2017-06-16T19:25:06.123Z,2.30
2017-06-16T19:27:34.133Z,2.50
2017-06-16T19:30:00.773Z,2.20
2017-06-16T19:32:40.665Z,2.00
2017-06-16T19:35:07.425Z,2.40
2017-06-16T19:37:35.416Z,2.47
2017-06-16T19:40:03.882Z,2.70
2017-06-16T19:42:32.110Z,2.30
2017-06-16T19:45:00.332Z,2.10
2017-06-16T19:47:27.221Z,2.70
2017-06-16T19:49:55.456Z,4.17
2017-06-16T19:52:39.338Z,3.10
2017-06-16T19:55:06.311Z,2.57
2017-06-16T19:57:34.564Z,2.87
2017-06-16T20:00:02.647Z,3.23
2017-06-16T20:02:30.200Z,2.60
2017-06-16T20:04:58.521Z,2.37
2017-06-16T20:07:26.762Z,3.20
2017-06-16T20:09:54.013Z,3.20
2017-06-16T20:12:21.161Z,2.90
2017-06-16T20:14:49.382Z,3.00
2017-06-16T20:17:15.872Z,2.40
2017-06-16T20:19:43.481Z,3.40
2017-06-16T20:22:11.725Z,3.57
2017-06-16T20:24:39.360Z,2.90
2017-06-16T20:27:07.511Z,2.70
2017-06-16T20:29:33.994Z,2.40
2017-06-16T20:32:00.504Z,1.97
2017-06-16T20:34:28.814Z,2.30
2017-06-16T20:36:57.064Z,2.30
2017-06-16T20:39:24.409Z,2.63
2017-06-16T20:41:52.676Z,2.40
2017-06-16T20:44:20.993Z,2.70
2017-06-16T20:46:47.589Z,2.30
2017-06-16T20:49:15.201Z,2.47
2017-06-16T20:51:42.131Z,2.70
2017-06-16T20:54:09.206Z,2.40
2017-06-16T20:56:36.689Z,3.50
2017-06-16T20:59:05.097Z,3.20
2017-06-16T21:01:33.344Z,2.30
2017-06-16T21:04:01.835Z,2.37
2017-06-16T21:06:30.875Z,2.70
2017-06-16T21:08:58.129Z,2.57
2017-06-16T21:11:24.582Z,2.83
2017-06-16T21:13:51.997Z,2.80
2017-06-16T21:16:20.577Z,2.70
2017-06-16T21:18:48.816Z,2.50
2017-06-16T21:21:18.022Z,3.70
2017-06-16T21:23:46.338Z,2.13
2017-06-16T21:26:12.882Z,2.47
2017-06-16T21:28:40.517Z,2.83
2017-06-16T21:31:08.794Z,2.57
2017-06-16T21:33:37.006Z,2.23
2017-06-16T21:36:05.221Z,3.13
2017-06-16T21:38:31.757Z,3.60
2017-06-16T21:40:58.293Z,3.30
2017-06-16T21:43:25.170Z,3.30
2017-06-16T21:45:52.486Z,1.93
2017-06-16T21:48:19.420Z,2.30
2017-06-16T21:50:46.962Z,2.50
2017-06-16T21:53:13.441Z,2.30
2017-06-16T21:55:41.664Z,2.93
2017-06-16T21:58:08.138Z,2.70
2017-06-16T22:00:35.951Z,2.20
2017-06-16T22:03:02.479Z,2.50
2017-06-16T22:05:30.713Z,2.17
2017-06-16T22:08:05.976Z,2.37
2017-06-16T22:10:32.837Z,3.27
2017-06-16T22:12:59.354Z,3.20
2017-06-16T22:15:26.606Z,2.33
2017-06-16T22:17:53.956Z,2.70
2017-06-16T22:20:22.204Z,3.00
2017-06-16T22:22:48.834Z,2.90
2017-06-16T22:25:15.844Z,2.30
2017-06-16T22:27:43.885Z,2.40
2017-06-16T22:30:12.116Z,2.77
2017-06-16T22:32:40.370Z,2.97
2017-06-16T22:35:08.383Z,3.33
2017-06-16T22:37:35.571Z,4.60
2017-06-16T22:40:02.844Z,3.60
2017-06-16T22:42:29.356Z,2.67
2017-06-16T22:44:56.193Z,2.90
2017-06-16T22:47:22.709Z,3.30
2017-06-16T22:49:50.706Z,2.73
2017-06-16T22:52:17.375Z,2.60
2017-06-16T22:54:44.645Z,2.83
2017-06-16T22:57:11.175Z,2.63
2017-06-16T22:59:39.333Z,2.70
2017-06-16T23:02:05.857Z,2.50
2017-06-16T23:04:32.741Z,3.10
2017-06-16T23:07:00.994Z,2.43
2017-06-16T23:09:29.232Z,2.97
2017-06-16T23:11:57.549Z,3.33
2017-06-16T23:14:24.218Z,3.43
2017-06-16T23:16:51.249Z,2.97
2017-06-16T23:19:18.673Z,3.27
2017-06-16T23:21:45.397Z,2.90
2017-06-16T23:24:11.771Z,3.07
2017-06-16T23:26:38.057Z,2.80
2017-06-16T23:29:04.367Z,2.50
2017-06-16T23:31:30.682Z,2.60
2017-06-16T23:33:56.995Z,2.87
2017-06-16T23:36:24.034Z,3.57
2017-06-16T23:38:52.101Z,2.90
2017-06-16T23:41:20.097Z,3.10
2017-06-16T23:43:47.549Z,3.50
2017-06-16T23:46:14.235Z,3.37
2017-06-16T23:48:42.257Z,3.50
2017-06-16T23:51:08.530Z,2.87
2017-06-16T23:53:36.524Z,3.43
2017-06-16T23:56:03.186Z,3.50
2017-06-16T23:58:30.338Z,2.50
